Time;durP1;ratioP1;P1;durP2;ratioP2;P2;SDS_P1;SDS_P2;PMS_P1;PMS_P2;Temp;Humidity;BMP_temperature;BMP_pressure;BME280_temperature;BME280_humidity;BME280_pressure;Samples;Min_cycle;Max_cycle;Signal;HPM_P1;HPM_P2
2021/03/28 00:00:58;;;;;;;101.30;49.30;;;;;;;4.55;51.58;101487.28;126270;1099;104172;-80
2021/03/28 00:03:33;;;;;;;93.27;47.67;;;;;;;4.53;52.00;101488.88;126268;1099;104182;-80
2021/03/28 00:06:16;;;;;;;98.57;49.47;;;;;;;4.50;51.60;101486.94;126287;1099;104258;-80
2021/03/28 00:08:47;;;;;;;98.27;49.33;;;;;;;4.48;51.54;101479.02;126315;1099;104718;-80
2021/03/28 00:11:20;;;;;;;98.17;50.47;;;;;;;4.52;52.44;101481.85;126305;1098;104178;-80
2021/03/28 00:13:53;;;;;;;99.60;48.73;;;;;;;4.55;51.71;101475.22;126321;1099;104143;-80
2021/03/28 00:16:25;;;;;;;98.63;48.03;;;;;;;4.52;51.89;101484.45;126249;1099;104232;-79
2021/03/28 00:19:01;;;;;;;96.33;49.60;;;;;;;4.45;52.45;101485.69;126249;1099;104313;-80
2021/03/28 00:21:35;;;;;;;94.17;48.77;;;;;;;4.41;52.43;101481.04;126316;1099;104274;-80
2021/03/28 00:24:21;;;;;;;94.58;47.50;;;;;;;4.38;52.04;101479.13;126282;1099;104274;-80
2021/03/28 00:27:06;;;;;;;104.97;49.67;;;;;;;4.28;52.14;101482.70;126244;1099;104249;-80
2021/03/28 00:29:53;;;;;;;95.40;48.57;;;;;;;4.19;52.40;101488.89;126237;1099;104223;-81
2021/03/28 00:32:25;;;;;;;104.20;49.80;;;;;;;4.17;52.25;101488.77;126284;1099;104204;-81
2021/03/28 00:35:09;;;;;;;97.00;47.57;;;;;;;4.18;52.87;101490.59;126243;1099;105381;-80
2021/03/28 00:37:41;;;;;;;95.95;47.43;;;;;;;4.14;52.23;101484.27;126335;1099;105040;-80
2021/03/28 00:40:24;;;;;;;95.47;49.10;;;;;;;4.14;52.60;101489.46;126333;1099;104229;-80
2021/03/28 00:43:15;;;;;;;94.87;47.93;;;;;;;4.18;52.34;101489.70;126285;1099;104158;-80
2021/03/28 00:45:56;;;;;;;98.23;47.97;;;;;;;4.27;52.95;101492.97;126269;1098;104149;-81
2021/03/28 00:48:29;;;;;;;97.43;48.17;;;;;;;4.26;52.36;101483.39;126271;1099;104159;-80
2021/03/28 00:51:09;;;;;;;;;;;;;;;4.20;53.21;101482.92;126301;1099;104171;-79
2021/03/28 00:53:44;;;;;;;100.73;51.80;;;;;;;4.17;53.07;101493.07;126239;1099;105469;-80
2021/03/28 00:56:17;;;;;;;92.87;46.47;;;;;;;4.16;53.48;101483.45;126380;1099;118668;-79
2021/03/28 00:58:53;;;;;;;94.17;47.33;;;;;;;4.11;52.95;101480.50;126262;1099;104226;-79
2021/03/28 01:02:02;;;;;;;93.40;46.63;;;;;;;4.11;54.02;101480.50;126343;1099;104277;-80
2021/03/28 01:04:56;;;;;;;94.97;46.30;;;;;;;4.01;52.84;101486.69;126284;1099;104182;-81
2021/03/28 01:07:44;;;;;;;88.73;44.07;;;;;;;3.93;53.29;101485.20;126275;1099;104644;-80
2021/03/28 01:10:45;;;;;;;94.73;46.47;;;;;;;3.84;53.70;101485.37;126251;1099;104153;-79
2021/03/28 01:13:40;;;;;;;95.97;47.00;;;;;;;3.79;53.54;101484.11;126277;1099;104141;-80
2021/03/28 01:16:56;;;;;;;95.62;46.15;;;;;;;3.80;54.01;101483.30;126259;1097;104251;-80
2021/03/28 01:19:47;;;;;;;92.83;46.03;;;;;;;3.76;53.91;101478.67;125736;1099;104152;-79
2021/03/28 01:22:23;;;;;;;87.67;41.97;;;;;;;3.73;53.46;101476.73;126307;1099;104261;-80
2021/03/28 01:25:02;;;;;;;89.10;44.83;;;;;;;3.68;54.03;101483.27;126301;1098;104274;-81
2021/03/28 01:27:45;;;;;;;91.77;45.63;;;;;;;3.65;54.13;101484.72;126205;1099;104621;-80
2021/03/28 01:30:19;;;;;;;91.57;45.30;;;;;;;3.62;54.23;101487.97;126333;1099;104159;-80
2021/03/28 01:32:59;;;;;;;96.20;47.53;;;;;;;3.59;53.75;101482.53;126326;1099;104143;-80
2021/03/28 01:35:34;;;;;;;90.67;45.37;;;;;;;3.57;54.57;101482.41;125276;1099;104200;-79
2021/03/28 01:38:10;;;;;;;92.75;47.95;;;;;;;3.62;54.83;101476.69;125326;1102;104169;-80
2021/03/28 01:40:48;;;;;;;94.67;48.00;;;;;;;3.69;54.79;101472.07;125312;1099;104287;-80
2021/03/28 01:43:27;;;;;;;100.60;49.20;;;;;;;3.72;53.86;101477.51;125338;1099;104172;-80
2021/03/28 01:46:02;;;;;;;93.40;46.57;;;;;;;3.68;54.72;101482.37;125291;1102;104169;-80
2021/03/28 01:48:45;;;;;;;102.53;48.07;;;;;;;3.63;54.90;101481.08;125344;1099;104632;-80
2021/03/28 01:51:45;;;;;;;94.43;47.30;;;;;;;3.60;54.84;101485.25;125333;1099;104666;-80
2021/03/28 01:54:26;;;;;;;100.10;48.03;;;;;;;3.62;54.77;101479.28;125218;1099;104335;-79
2021/03/28 01:57:03;;;;;;;94.10;47.33;;;;;;;3.65;54.60;101477.83;125248;1099;104133;-80
2021/03/28 01:59:42;;;;;;;95.73;49.47;;;;;;;3.65;55.09;101487.31;125386;1099;104204;-79
2021/03/28 02:02:33;;;;;;;92.87;47.23;;;;;;;3.58;54.28;101486.83;125295;1099;104149;-80
2021/03/28 02:05:15;;;;;;;87.63;44.60;;;;;;;3.52;55.02;101483.74;125323;1099;104437;-80
2021/03/28 02:08:09;;;;;;;91.37;47.23;;;;;;;3.44;54.69;101479.61;126067;1099;107881;-80
2021/03/28 02:11:09;;;;;;;97.50;45.00;;;;;;;3.35;55.11;101486.66;126326;1099;104159;-80
2021/03/28 02:13:55;;;;;;;90.70;44.20;;;;;;;3.29;54.77;101487.09;126315;1099;104146;-80
2021/03/28 02:16:29;;;;;;;105.37;49.10;;;;;;;3.26;55.30;101489.43;126253;1099;104147;-80
2021/03/28 02:19:15;;;;;;;94.23;46.30;;;;;;;3.27;55.39;101488.63;126292;1099;104158;-80
2021/03/28 02:21:54;;;;;;;91.83;44.87;;;;;;;3.24;55.13;101490.97;126185;1099;104274;-80
2021/03/28 02:24:29;;;;;;;94.93;46.13;;;;;;;3.17;55.07;101494.77;126304;1098;104175;-80
2021/03/28 02:27:13;;;;;;;88.90;44.40;;;;;;;3.10;54.76;101492.48;126276;1099;104284;-80
2021/03/28 02:29:49;;;;;;;90.83;45.40;;;;;;;3.05;55.63;101484.33;126267;1099;104194;-79
2021/03/28 02:32:36;;;;;;;92.40;45.87;;;;;;;2.99;55.36;101477.70;126297;1099;104143;-79
2021/03/28 02:35:15;;;;;;;86.67;42.33;;;;;;;2.92;55.06;101480.59;126266;1099;104396;-79
2021/03/28 02:37:58;;;;;;;89.87;44.37;;;;;;;2.84;55.54;101487.75;126268;1099;104218;-79
2021/03/28 02:40:42;;;;;;;88.57;43.67;;;;;;;2.80;55.43;101496.03;126337;1099;104130;-80
2021/03/28 02:43:24;;;;;;;87.35;43.08;;;;;;;2.73;55.68;101494.63;126350;1099;104191;-80
2021/03/28 02:46:14;;;;;;;92.30;44.27;;;;;;;2.66;55.60;101493.19;126298;1099;104150;-80
2021/03/28 02:48:56;;;;;;;88.83;43.53;;;;;;;2.60;55.96;101490.13;126223;1099;107449;-79
2021/03/28 02:51:53;;;;;;;86.90;43.70;;;;;;;2.57;55.98;101495.05;126330;1099;104424;-80
2021/03/28 02:54:42;;;;;;;91.03;45.00;;;;;;;2.53;55.85;101492.07;126291;1099;104201;-80
2021/03/28 02:57:31;;;;;;;87.90;42.27;;;;;;;2.49;55.98;101488.30;126268;1098;104161;-80
2021/03/28 03:00:14;;;;;;;89.03;42.77;;;;;;;2.49;55.97;101499.59;126272;1099;104284;-79
2021/03/28 03:03:10;;;;;;;92.50;45.80;;;;;;;2.47;55.52;101498.53;126316;1099;104223;-80
2021/03/28 03:05:56;;;;;;;92.97;46.10;;;;;;;2.44;56.21;101500.86;126312;1099;104277;-79
2021/03/28 03:08:32;;;;;;;96.33;45.43;;;;;;;2.41;56.35;101508.37;126260;1099;104277;-80
2021/03/28 03:11:32;;;;;;;94.40;45.87;;;;;;;2.43;56.40;101508.50;126320;1099;104729;-80
2021/03/28 03:14:22;;;;;;;92.20;44.20;;;;;;;2.45;56.32;101512.16;126297;1099;104317;-81
2021/03/28 03:17:15;;;;;;;85.27;41.70;;;;;;;2.41;56.42;101518.73;126313;1099;104140;-81
2021/03/28 03:20:12;;;;;;;86.77;40.70;;;;;;;2.37;56.31;101519.27;126195;1099;104204;-80
2021/03/28 03:23:04;;;;;;;79.73;40.70;;;;;;;2.33;56.94;101517.19;126242;1099;104149;-80
2021/03/28 03:26:03;;;;;;;88.10;43.57;;;;;;;2.30;56.49;101524.70;126228;1099;104153;-79
2021/03/28 03:28:55;;;;;;;87.97;43.17;;;;;;;2.27;57.14;101521.84;126220;1099;105015;-79
2021/03/28 03:31:46;;;;;;;82.57;40.50;;;;;;;2.26;57.01;101530.38;126263;1099;104238;-79
2021/03/28 03:34:42;;;;;;;85.40;42.97;;;;;;;2.24;56.88;101527.66;126303;1099;104143;-80
2021/03/28 03:37:33;;;;;;;84.50;40.27;;;;;;;2.25;56.52;101537.25;126308;1099;104159;-81
2021/03/28 03:40:29;;;;;;;85.40;43.93;;;;;;;2.28;57.18;101534.03;126212;1099;104139;-79
2021/03/28 03:43:25;;;;;;;86.90;42.73;;;;;;;2.36;57.17;101542.45;126313;1099;104272;-78
2021/03/28 03:46:03;;;;;;;79.07;38.77;;;;;;;2.36;57.22;101538.17;126312;1099;104207;-80
2021/03/28 03:48:44;;;;;;;83.03;39.00;;;;;;;2.31;57.06;101549.84;126278;1099;105569;-80
2021/03/28 03:51:40;;;;;;;86.13;41.67;;;;;;;2.26;57.18;101551.10;126345;1099;104143;-79
2021/03/28 03:54:14;;;;;;;87.80;41.00;;;;;;;2.16;57.49;101550.31;126336;1099;104210;-79
2021/03/28 03:56:58;;;;;;;85.00;43.27;;;;;;;2.13;57.36;101552.63;126279;1099;104271;-80
2021/03/28 03:59:41;;;;;;;87.60;43.07;;;;;;;2.10;57.40;101556.65;126247;1099;104214;-80
2021/03/28 04:02:20;;;;;;;83.70;43.17;;;;;;;2.10;57.27;101565.34;126326;1099;104178;-80
2021/03/28 04:04:58;;;;;;;88.05;42.15;;;;;;;2.13;57.76;101560.41;126262;1099;104149;-80
2021/03/28 04:07:43;;;;;;;93.20;43.93;;;;;;;2.19;57.84;101564.31;126324;1099;104149;-80
2021/03/28 04:10:24;;;;;;;85.57;40.07;;;;;;;2.19;57.44;101551.38;126263;1099;104274;-80
2021/03/28 04:13:09;;;;;;;85.07;40.53;;;;;;;2.20;57.61;101566.11;126209;1099;104788;-80
2021/03/28 04:15:52;;;;;;;87.60;41.45;;;;;;;2.21;57.70;101566.24;126296;1099;102082;-80
2021/03/28 04:18:43;;;;;;;89.10;42.43;;;;;;;2.24;57.90;101574.28;126181;1099;104165;-79
2021/03/28 04:21:29;;;;;;;80.23;38.80;;;;;;;2.26;57.88;101561.45;126299;1099;106380;-80
2021/03/28 04:24:18;;;;;;;79.90;39.87;;;;;;;2.28;57.97;101565.11;126260;1099;102143;-80
2021/03/28 04:27:03;;;;;;;87.53;40.87;;;;;;;2.29;57.98;101566.91;126147;1099;104150;-79
2021/03/28 04:29:32;;;;;;;86.23;40.83;;;;;;;2.30;58.13;101554.09;125394;1099;104912;-80
2021/03/28 04:32:20;;;;;;;88.03;44.00;;;;;;;2.34;57.99;101553.59;126216;1099;104460;-80
2021/03/28 04:34:59;;;;;;;78.70;40.00;;;;;;;2.39;57.86;101558.27;126531;1099;104172;-79
2021/03/28 04:37:40;;;;;;;84.53;39.40;;;;;;;2.46;57.92;101568.34;126332;1099;104742;-79
2021/03/28 04:40:31;;;;;;;84.13;42.30;;;;;;;2.49;57.93;101564.36;125992;1099;104216;-80
2021/03/28 04:43:25;;;;;;;84.17;39.77;;;;;;;2.51;58.04;101560.20;126089;1099;104187;-81
2021/03/28 04:46:12;;;;;;;86.80;41.47;;;;;;;2.57;58.45;101564.08;126117;1099;104181;-81
2021/03/28 04:49:07;;;;;;;88.17;41.93;;;;;;;2.58;57.96;101565.91;126092;1099;104229;-79
2021/03/28 04:51:50;;;;;;;;;;;;;;;2.61;58.35;101560.98;126190;1099;104178;-78
2021/03/28 04:54:49;;;;;;;83.70;41.23;;;;;;;2.66;58.14;101568.34;125467;1099;104207;-79
2021/03/28 04:57:34;;;;;;;88.07;41.93;;;;;;;2.72;58.55;101562.79;126173;1099;104169;-79
2021/03/28 05:00:35;;;;;;;88.30;43.60;;;;;;;2.80;58.36;101561.73;126150;1099;104181;-80
2021/03/28 05:03:30;;;;;;;89.70;44.07;;;;;;;2.91;58.27;101562.64;125575;1099;104383;-79
2021/03/28 05:06:18;;;;;;;85.20;42.30;;;;;;;3.04;58.50;101560.30;126276;1099;104140;-79
2021/03/28 05:09:09;;;;;;;84.73;42.97;;;;;;;3.14;58.55;101564.55;126202;1099;104229;-80
2021/03/28 05:12:04;;;;;;;81.90;41.60;;;;;;;3.21;58.25;101565.95;126154;1098;105591;-80
2021/03/28 05:14:45;;;;;;;;;;;;;;;3.16;58.72;101562.97;126314;1099;104149;-79
2021/03/28 05:17:42;;;;;;;72.53;35.73;;;;;;;3.17;58.12;101563.91;126254;1099;104175;-80
2021/03/28 05:20:35;;;;;;;80.67;39.87;;;;;;;3.23;58.86;101564.41;125453;1099;104290;-80
2021/03/28 05:23:37;;;;;;;83.90;39.00;;;;;;;3.33;58.44;101571.25;126182;1099;108092;-80
2021/03/28 05:26:39;;;;;;;82.07;40.13;;;;;;;3.43;58.74;101566.05;126303;1099;104165;-79
2021/03/28 05:29:29;;;;;;;82.67;40.33;;;;;;;3.55;58.69;101561.84;126230;1099;104220;-80
2021/03/28 05:32:25;;;;;;;85.30;42.40;;;;;;;3.63;58.32;101565.06;126294;1099;104158;-80
2021/03/28 05:35:19;;;;;;;80.77;42.20;;;;;;;3.72;58.96;101567.47;126257;1099;104204;-81
2021/03/28 05:38:17;;;;;;;84.93;44.87;;;;;;;3.83;57.99;101568.33;126254;1099;104620;-80
2021/03/28 05:41:10;;;;;;;90.03;42.13;;;;;;;3.91;58.27;101562.98;126276;1099;104165;-80
2021/03/28 05:44:06;;;;;;;87.70;44.00;;;;;;;4.02;59.01;101568.09;126245;1099;111979;-79
2021/03/28 05:46:51;;;;;;;87.63;44.90;;;;;;;4.10;58.47;101561.84;126226;1099;104195;-79
2021/03/28 05:49:44;;;;;;;93.77;45.90;;;;;;;4.22;58.84;101570.56;126332;1099;104271;-80
2021/03/28 05:52:40;;;;;;;87.63;45.47;;;;;;;4.31;58.80;101571.28;126194;1099;105489;-80
2021/03/28 05:55:35;;;;;;;89.43;45.83;;;;;;;4.41;58.64;101572.00;126302;1099;104213;-79
2021/03/28 05:58:30;;;;;;;86.33;44.93;;;;;;;4.52;58.65;101565.03;126305;1099;104274;-80
2021/03/28 06:01:26;;;;;;;88.90;46.40;;;;;;;4.62;58.13;101564.96;126307;1099;104220;-79
2021/03/28 06:04:22;;;;;;;92.87;47.27;;;;;;;4.75;58.63;101561.59;126252;1099;104179;-80
2021/03/28 06:07:22;;;;;;;91.55;46.15;;;;;;;4.88;58.29;101561.75;126239;1099;104354;-80
2021/03/28 06:10:17;;;;;;;90.63;46.60;;;;;;;5.04;58.31;101569.00;126198;1099;104268;-80
2021/03/28 06:13:13;;;;;;;91.87;46.47;;;;;;;5.19;58.29;101570.15;126244;1099;104283;-81
2021/03/28 06:16:10;;;;;;;94.55;48.00;;;;;;;5.36;58.39;101562.67;126281;1099;104143;-80
2021/03/28 06:19:06;;;;;;;92.90;45.93;;;;;;;5.52;58.54;101560.41;126303;1099;104162;-80
2021/03/28 06:22:05;;;;;;;95.30;48.57;;;;;;;5.66;58.36;101565.73;126232;1099;104203;-79
2021/03/28 06:25:06;;;;;;;93.63;47.77;;;;;;;5.82;58.47;101565.13;126252;1099;104318;-79
2021/03/28 06:28:03;;;;;;;94.73;47.70;;;;;;;5.98;58.30;101565.44;126250;1099;104213;-80
2021/03/28 06:30:59;;;;;;;88.50;46.70;;;;;;;6.14;57.93;101554.42;126258;1099;104204;-80
2021/03/28 06:34:02;;;;;;;92.30;47.87;;;;;;;6.34;58.31;101555.80;125526;1099;104322;-81
2021/03/28 06:36:59;;;;;;;87.53;46.47;;;;;;;6.54;58.04;101549.35;126250;1099;104316;-80
2021/03/28 06:40:00;;;;;;;89.73;46.60;;;;;;;6.74;58.11;101549.83;126160;1099;104226;-80
2021/03/28 06:42:55;;;;;;;86.27;43.83;;;;;;;6.90;57.83;101556.98;126033;1099;104165;-80
2021/03/28 06:45:37;;;;;;;;;;;;;;;7.05;57.69;101547.56;126214;1099;107044;-80
2021/03/28 06:48:33;;;;;;;85.73;46.60;;;;;;;7.24;58.18;101547.07;126260;1099;104121;-81
2021/03/28 06:51:30;;;;;;;83.60;42.60;;;;;;;7.41;57.84;101545.56;126240;1099;104270;-81
2021/03/28 06:54:29;;;;;;;83.03;44.17;;;;;;;7.60;57.39;101544.15;126186;1099;105671;-79
2021/03/28 06:57:25;;;;;;;82.47;43.87;;;;;;;7.79;57.65;101541.92;126046;1099;104139;-79
2021/03/28 07:00:18;;;;;;;87.13;46.23;;;;;;;7.95;57.23;101545.47;126141;1099;104177;-79
2021/03/28 07:03:20;;;;;;;87.73;46.20;;;;;;;8.10;57.43;101538.59;126119;1099;104345;-79
2021/03/28 07:05:59;;;;;;;84.60;45.17;;;;;;;8.31;57.41;101531.19;126037;1099;108144;-79
2021/03/28 07:08:51;;;;;;;85.43;47.07;;;;;;;8.48;57.26;101531.33;126158;1099;104137;-80
2021/03/28 07:11:32;;;;;;;91.10;46.37;;;;;;;8.65;56.71;101528.05;126272;1099;104281;-80
2021/03/28 07:14:34;;;;;;;91.43;48.50;;;;;;;8.81;57.24;101528.13;126311;1099;104198;-80
2021/03/28 07:17:30;;;;;;;90.10;49.00;;;;;;;9.04;56.95;101525.05;126298;1098;104149;-79
2021/03/28 07:20:20;;;;;;;82.53;45.47;;;;;;;9.29;56.66;101528.28;126286;1099;104605;-80
2021/03/28 07:23:20;;;;;;;82.30;46.43;;;;;;;9.52;56.53;101528.67;126259;1099;104161;-81
2021/03/28 07:25:55;;;;;;;83.70;44.83;;;;;;;9.73;56.92;101520.22;126251;1099;104155;-81
2021/03/28 07:28:45;;;;;;;;;;;;;;;9.88;56.36;101519.34;126354;1099;104194;-80
2021/03/28 07:31:40;;;;;;;85.87;46.73;;;;;;;10.14;56.29;101522.45;126298;1099;104156;-81
2021/03/28 07:34:37;;;;;;;86.90;45.50;;;;;;;10.45;56.02;101521.50;126178;1099;104251;-79
2021/03/28 07:37:37;;;;;;;85.45;46.05;;;;;;;10.68;56.14;101519.19;126301;1099;104325;-80
2021/03/28 07:40:21;;;;;;;85.70;45.73;;;;;;;10.84;56.05;101523.48;126276;1099;104277;-80
2021/03/28 07:43:09;;;;;;;82.80;47.33;;;;;;;11.05;55.67;101521.95;126297;1099;104169;-80
2021/03/28 07:45:58;;;;;;;84.27;45.27;;;;;;;11.17;56.11;101521.64;126255;1099;104197;-80
2021/03/28 07:48:59;;;;;;;74.57;38.07;;;;;;;11.28;55.38;101519.55;126197;1099;104264;-80
2021/03/28 07:51:56;;;;;;;77.40;43.53;;;;;;;11.36;55.30;101514.66;126285;1099;104162;-81
2021/03/28 07:54:50;;;;;;;82.83;45.40;;;;;;;11.45;55.27;101516.04;126228;1099;104152;-81
2021/03/28 07:57:46;;;;;;;84.45;45.35;;;;;;;11.61;55.41;101511.48;126272;1099;106385;-81
2021/03/28 08:00:40;;;;;;;83.67;45.40;;;;;;;11.77;54.86;101508.77;125231;1102;104322;-80
2021/03/28 08:03:40;;;;;;;82.93;44.47;;;;;;;11.86;54.90;101506.57;125184;1102;104764;-80
2021/03/28 08:06:38;;;;;;;83.50;43.93;;;;;;;12.04;54.74;101508.27;125342;1102;104274;-80
2021/03/28 08:09:37;;;;;;;82.90;44.73;;;;;;;12.13;54.46;101506.06;125262;1102;104158;-80
2021/03/28 08:12:34;;;;;;;77.53;43.40;;;;;;;12.26;54.70;101503.98;125249;1102;104179;-80
2021/03/28 08:15:27;;;;;;;88.80;47.23;;;;;;;12.26;53.83;101502.24;125285;1102;104983;-80
2021/03/28 08:18:10;;;;;;;74.50;41.17;;;;;;;12.26;53.54;101491.72;125385;1099;107868;-80
2021/03/28 08:20:57;;;;;;;78.02;41.35;;;;;;;12.50;53.55;101496.30;126272;1099;104140;-81
2021/03/28 08:23:51;;;;;;;78.40;42.90;;;;;;;12.66;53.77;101497.84;126308;1099;104594;-80
2021/03/28 08:26:40;;;;;;;83.23;46.17;;;;;;;12.71;53.48;101501.57;126163;1099;104281;-80
2021/03/28 08:29:42;;;;;;;77.40;43.07;;;;;;;12.73;53.85;101497.26;126310;1099;104252;-79
2021/03/28 08:32:39;;;;;;;85.60;44.20;;;;;;;12.88;53.53;101497.91;126222;1099;104152;-80
2021/03/28 08:35:36;;;;;;;74.30;40.47;;;;;;;13.05;53.32;101493.35;126272;1099;104152;-79
2021/03/28 08:38:30;;;;;;;71.80;39.17;;;;;;;13.21;53.35;101491.35;126280;1099;104143;-80
2021/03/28 08:41:31;;;;;;;76.33;41.30;;;;;;;13.37;52.99;101490.26;126171;1099;104258;-80
2021/03/28 08:44:40;;;;;;;71.70;38.67;;;;;;;13.53;52.74;101491.80;126185;1099;104274;-79
2021/03/28 08:47:46;;;;;;;65.87;34.17;;;;;;;13.72;52.37;101486.38;126011;1099;104142;-79
2021/03/28 08:50:26;;;;;;;64.23;34.57;;;;;;;13.93;52.68;101477.47;125540;1099;104316;-79
2021/03/28 08:53:21;;;;;;;65.17;35.93;;;;;;;14.03;51.65;101482.27;126124;1099;102929;-80
2021/03/28 08:56:22;;;;;;;64.92;34.50;;;;;;;14.16;51.55;101475.69;125660;1099;104205;-81
2021/03/28 08:58:56;;;;;;;57.87;32.03;;;;;;;14.33;51.25;101471.03;126181;1099;118710;-81
2021/03/28 09:01:39;;;;;;;57.40;30.20;;;;;;;14.40;51.27;101470.41;126154;1099;104152;-81
2021/03/28 09:04:23;;;;;;;49.67;27.17;;;;;;;14.44;51.07;101472.30;126232;1099;104216;-80
2021/03/28 09:07:06;;;;;;;51.03;27.30;;;;;;;14.45;50.39;101474.11;126079;1098;104433;-79
2021/03/28 09:10:07;;;;;;;45.10;23.97;;;;;;;14.47;50.11;101461.84;126167;1099;104882;-80
2021/03/28 09:12:56;;;;;;;47.87;24.17;;;;;;;14.57;50.11;101463.09;126232;1099;104407;-78
2021/03/28 09:15:41;;;;;;;41.77;21.47;;;;;;;14.71;49.92;101460.95;126293;1099;104143;-79
2021/03/28 09:18:25;;;;;;;44.30;22.17;;;;;;;14.89;50.57;101463.30;126226;1099;104153;-80
2021/03/28 09:20:59;;;;;;;39.40;20.20;;;;;;;15.08;49.20;101456.87;126292;1099;104139;-79
2021/03/28 09:23:48;;;;;;;37.85;21.50;;;;;;;15.17;49.11;101461.57;126268;1099;104152;-80
2021/03/28 09:26:28;;;;;;;40.47;20.17;;;;;;;15.25;48.90;101450.41;126184;1099;104411;-79
2021/03/28 09:29:33;;;;;;;39.33;20.50;;;;;;;15.27;49.12;101450.45;126127;1099;105115;-82
2021/03/28 09:32:29;;;;;;;39.90;20.27;;;;;;;15.22;47.83;101446.74;126207;1099;104444;-80
2021/03/28 09:35:23;;;;;;;37.07;19.30;;;;;;;15.26;48.27;101443.36;126174;1099;104140;-80
2021/03/28 09:38:01;;;;;;;38.80;19.70;;;;;;;15.28;48.60;101436.36;126107;1099;104291;-81
2021/03/28 09:40:46;;;;;;;35.30;18.10;;;;;;;15.40;47.21;101427.92;126179;1099;104306;-79
2021/03/28 09:43:28;;;;;;;35.83;18.23;;;;;;;15.43;46.35;101423.62;126129;1099;104143;-80
2021/03/28 09:46:22;;;;;;;36.60;18.47;;;;;;;15.40;47.36;101427.92;126191;1099;104226;-79
2021/03/28 09:49:15;;;;;;;33.43;17.63;;;;;;;15.36;47.29;101418.98;126088;1098;104204;-80
2021/03/28 09:52:12;;;;;;;32.28;17.20;;;;;;;15.42;46.93;101407.70;125222;1102;105087;-79
2021/03/28 09:55:13;;;;;;;34.67;17.37;;;;;;;15.52;46.35;101412.44;125257;1102;103055;-80
2021/03/28 09:57:55;;;;;;;29.43;14.03;;;;;;;15.56;44.63;101410.77;125202;1102;104454;-80
2021/03/28 10:00:36;;;;;;;29.63;15.43;;;;;;;15.57;45.54;101404.63;125266;1102;104277;-80
2021/03/28 10:03:18;;;;;;;32.57;15.70;;;;;;;15.64;45.64;101403.94;125230;1102;104146;-80
2021/03/28 10:05:48;;;;;;;30.20;16.17;;;;;;;15.60;46.13;101397.67;125215;1102;104287;-80
2021/03/28 10:08:20;;;;;;;30.93;15.83;;;;;;;15.65;45.26;101397.81;125192;1102;104159;-79
2021/03/28 10:11:06;;;;;;;29.03;15.80;;;;;;;15.73;45.04;101396.28;125092;1099;104340;-81
2021/03/28 10:13:51;;;;;;;30.20;15.00;;;;;;;15.80;44.74;101393.00;125215;1102;104209;-79
2021/03/28 10:16:26;;;;;;;;;;;;;;;15.83;42.58;101396.58;125165;1099;104350;-80
2021/03/28 10:19:14;;;;;;;33.97;16.77;;;;;;;15.83;44.54;101385.98;125118;1102;104155;-80
2021/03/28 10:22:00;;;;;;;31.80;16.57;;;;;;;15.85;44.66;101384.27;125087;1102;104267;-80
2021/03/28 10:24:57;;;;;;;29.97;15.40;;;;;;;15.91;44.04;101380.07;126131;1099;104159;-80
2021/03/28 10:27:55;;;;;;;30.53;15.00;;;;;;;15.95;43.10;101371.34;126279;1099;104592;-80
2021/03/28 10:30:37;;;;;;;33.90;16.50;;;;;;;15.96;43.69;101374.91;126183;1099;104131;-80
2021/03/28 10:33:23;;;;;;;30.30;15.47;;;;;;;16.00;43.23;101374.11;126190;1099;104679;-80
2021/03/28 10:36:01;;;;;;;33.63;17.47;;;;;;;16.02;42.89;101372.43;126311;1099;104277;-80
2021/03/28 10:38:42;;;;;;;31.90;16.73;;;;;;;16.04;43.44;101377.77;126237;1099;104331;-79
2021/03/28 10:41:36;;;;;;;31.87;16.90;;;;;;;15.99;42.28;101361.75;126224;1099;104638;-81
2021/03/28 10:44:20;;;;;;;30.37;15.73;;;;;;;16.01;43.32;101367.09;126288;1098;104134;-79
2021/03/28 10:47:21;;;;;;;30.57;16.33;;;;;;;15.98;43.09;101354.66;126244;1099;104256;-80
2021/03/28 10:50:17;;;;;;;33.47;17.50;;;;;;;15.99;42.78;101352.05;126132;1099;104267;-80
2021/03/28 10:53:11;;;;;;;33.97;16.83;;;;;;;16.08;42.79;101354.06;125411;1099;104155;-79
2021/03/28 10:56:07;;;;;;;36.07;17.70;;;;;;;16.19;42.60;101354.35;126297;1099;104137;-80
2021/03/28 10:59:05;;;;;;;32.70;17.23;;;;;;;16.27;43.07;101346.61;125514;1099;104152;-80
2021/03/28 11:02:01;;;;;;;37.37;18.37;;;;;;;16.32;42.00;101345.84;126116;1099;104178;-78
2021/03/28 11:04:41;;;;;;;;;;;;;;;16.41;42.36;101333.69;126166;1099;104146;-79
2021/03/28 11:07:30;;;;;;;32.87;17.53;;;;;;;16.48;42.68;101325.05;126252;1099;104143;-79
2021/03/28 11:10:37;;;;;;;33.00;17.50;;;;;;;16.57;42.35;101321.73;126086;1099;104150;-80
2021/03/28 11:13:29;;;;;;;33.57;17.70;;;;;;;16.65;42.00;101318.39;126137;1098;104281;-79
2021/03/28 11:16:06;;;;;;;33.27;17.67;;;;;;;16.69;42.01;101308.78;125352;1099;104168;-79
2021/03/28 11:19:10;;;;;;;33.43;17.63;;;;;;;16.75;41.71;101306.28;125994;1098;104261;-80
2021/03/28 11:21:48;;;;;;;33.30;17.20;;;;;;;16.80;42.33;101301.97;126089;1099;104230;-80
2021/03/28 11:24:30;;;;;;;33.13;17.87;;;;;;;16.87;41.62;101303.91;126258;1099;104134;-80
2021/03/28 11:27:26;;;;;;;33.27;16.57;;;;;;;16.90;40.38;101297.80;126273;1099;104195;-79
2021/03/28 11:30:28;;;;;;;34.67;17.67;;;;;;;16.91;40.91;101298.68;126158;1099;104182;-80
2021/03/28 11:33:13;;;;;;;34.43;16.53;;;;;;;16.92;40.77;101284.58;126222;1098;117849;-79
2021/03/28 11:39:20;;;;;;;30.50;16.33;;;;;;;16.99;41.37;101291.82;126087;1099;104201;-79
2021/03/28 11:42:01;;;;;;;34.40;18.33;;;;;;;17.05;40.83;101290.19;126188;1099;104223;-79
2021/03/28 11:44:39;;;;;;;31.57;16.83;;;;;;;17.09;40.57;101282.30;126297;1099;104162;-80
2021/03/28 11:47:39;;;;;;;35.87;17.83;;;;;;;17.17;40.87;101276.31;126271;1099;104191;-79
2021/03/28 11:50:32;;;;;;;32.33;17.27;;;;;;;17.29;40.90;101266.81;126271;1099;104213;-80
2021/03/28 11:53:18;;;;;;;32.33;16.87;;;;;;;17.32;40.66;101264.22;126272;1099;104241;-81
2021/03/28 11:55:52;;;;;;;32.33;17.03;;;;;;;17.39;40.31;101271.41;126261;1099;104662;-81
2021/03/28 11:58:46;;;;;;;33.60;18.00;;;;;;;17.38;40.67;101265.22;126308;1099;104130;-79
2021/03/28 12:02:02;;;;;;;32.70;17.47;;;;;;;17.33;40.29;101260.71;125370;1099;104211;-79
2021/03/28 12:04:34;;;;;;;33.38;17.17;;;;;;;17.34;40.39;101260.74;126193;1099;104262;-80
2021/03/28 12:07:28;;;;;;;33.27;17.40;;;;;;;17.36;40.38;101255.47;126288;1098;104200;-80
2021/03/28 12:10:28;;;;;;;30.20;16.80;;;;;;;17.40;39.53;101255.53;126281;1099;104622;-80
2021/03/28 12:13:24;;;;;;;31.00;17.17;;;;;;;17.43;39.40;101258.24;126213;1099;105259;-79
2021/03/28 12:16:14;;;;;;;31.67;17.47;;;;;;;17.53;40.07;101243.42;126269;1099;104162;-79
2021/03/28 12:18:50;;;;;;;35.20;17.73;;;;;;;17.57;39.75;101233.75;126243;1099;104265;-80
2021/03/28 12:21:32;;;;;;;;;;;;;;;17.63;39.08;101239.17;126319;1099;104159;-79
2021/03/28 12:24:05;;;;;;;30.97;16.60;;;;;;;17.70;39.62;101230.47;126212;1099;111384;-79
2021/03/28 12:26:53;;;;;;;31.00;16.87;;;;;;;17.79;39.59;101238.59;126245;1099;104136;-79
2021/03/28 12:29:51;;;;;;;32.77;17.67;;;;;;;17.86;39.60;101222.77;126290;1099;104140;-79
2021/03/28 12:32:51;;;;;;;31.03;17.30;;;;;;;17.88;39.31;101224.60;126170;1099;104208;-78
2021/03/28 12:35:26;;;;;;;28.90;15.80;;;;;;;17.87;38.50;101216.58;126294;1098;104271;-79
2021/03/28 12:38:18;;;;;;;32.30;17.70;;;;;;;17.76;38.70;101214.66;126210;1099;104293;-79